sensor_id;sensor_type;location;lat;lon;timestamp;pressure;altitude;pressure_sealevel;temperature;humidity
41254;BME280;26987;59.928;30.306;2023-05-20T00:01:19;103010.75;;;8.09;94.85
41254;BME280;26987;59.928;30.306;2023-05-20T00:03:47;103017.75;;;8.00;94.54
41254;BME280;26987;59.928;30.306;2023-05-20T00:06:15;103020.75;;;8.17;94.76
41254;BME280;26987;59.928;30.306;2023-05-20T00:08:43;103026.25;;;8.15;94.48
41254;BME280;26987;59.928;30.306;2023-05-20T00:11:10;103029.06;;;8.14;94.46
41254;BME280;26987;59.928;30.306;2023-05-20T00:13:40;103024.81;;;8.11;94.22
41254;BME280;26987;59.928;30.306;2023-05-20T00:16:07;103015.78;;;8.02;94.23
41254;BME280;26987;59.928;30.306;2023-05-20T00:18:35;103034.97;;;8.17;93.84
41254;BME280;26987;59.928;30.306;2023-05-20T00:21:03;103031.31;;;8.18;94.14
41254;BME280;26987;59.928;30.306;2023-05-20T00:23:31;103016.09;;;8.09;94.37
41254;BME280;26987;59.928;30.306;2023-05-20T00:25:59;103024.25;;;8.07;94.41
41254;BME280;26987;59.928;30.306;2023-05-20T00:28:27;103027.63;;;8.10;94.77
41254;BME280;26987;59.928;30.306;2023-05-20T00:30:57;103031.03;;;8.12;95.19
41254;BME280;26987;59.928;30.306;2023-05-20T00:33:25;103030.69;;;8.05;95.47
41254;BME280;26987;59.928;30.306;2023-05-20T00:35:52;103037.47;;;8.09;95.83
41254;BME280;26987;59.928;30.306;2023-05-20T00:38:21;103039.31;;;8.08;96.18
41254;BME280;26987;59.928;30.306;2023-05-20T00:40:49;103034.94;;;8.07;97.12
41254;BME280;26987;59.928;30.306;2023-05-20T00:43:16;103036.31;;;8.02;97.40
41254;BME280;26987;59.928;30.306;2023-05-20T00:45:46;103037.16;;;8.02;98.07
41254;BME280;26987;59.928;30.306;2023-05-20T00:48:15;103038.84;;;8.03;98.82
41254;BME280;26987;59.928;30.306;2023-05-20T00:50:43;103017.44;;;7.93;99.43
41254;BME280;26987;59.928;30.306;2023-05-20T00:53:11;103034.09;;;8.07;100.00
41254;BME280;26987;59.928;30.306;2023-05-20T00:55:39;103027.59;;;8.00;100.00
41254;BME280;26987;59.928;30.306;2023-05-20T00:58:07;103028.75;;;8.07;100.00
41254;BME280;26987;59.928;30.306;2023-05-20T01:00:35;103040.53;;;8.04;100.00
41254;BME280;26987;59.928;30.306;2023-05-20T01:03:03;103041.09;;;7.98;100.00
41254;BME280;26987;59.928;30.306;2023-05-20T01:05:33;103045.06;;;8.04;100.00
41254;BME280;26987;59.928;30.306;2023-05-20T01:08:01;103048.41;;;8.06;100.00
41254;BME280;26987;59.928;30.306;2023-05-20T01:10:29;103047.59;;;8.05;100.00
41254;BME280;26987;59.928;30.306;2023-05-20T01:13:00;103043.06;;;8.06;100.00
41254;BME280;26987;59.928;30.306;2023-05-20T01:15:32;103043.34;;;8.03;100.00
41254;BME280;26987;59.928;30.306;2023-05-20T01:18:01;103055.59;;;8.05;100.00
41254;BME280;26987;59.928;30.306;2023-05-20T01:20:33;103058.28;;;8.05;100.00
41254;BME280;26987;59.928;30.306;2023-05-20T01:23:03;103025.00;;;7.88;100.00
41254;BME280;26987;59.928;30.306;2023-05-20T01:25:31;103051.81;;;8.08;100.00
41254;BME280;26987;59.928;30.306;2023-05-20T01:27:59;103032.94;;;8.00;100.00
41254;BME280;26987;59.928;30.306;2023-05-20T01:30:31;103054.22;;;8.11;100.00
41254;BME280;26987;59.928;30.306;2023-05-20T01:33:04;102987.22;;;7.72;100.00
41254;BME280;26987;59.928;30.306;2023-05-20T01:35:34;103060.84;;;8.17;100.00
41254;BME280;26987;59.928;30.306;2023-05-20T01:38:05;103066.66;;;8.22;100.00
41254;BME280;26987;59.928;30.306;2023-05-20T01:40:34;103054.13;;;8.23;100.00
41254;BME280;26987;59.928;30.306;2023-05-20T01:43:03;103053.59;;;8.29;100.00
41254;BME280;26987;59.928;30.306;2023-05-20T01:45:32;103059.78;;;8.29;100.00
41254;BME280;26987;59.928;30.306;2023-05-20T01:48:01;103056.44;;;8.37;100.00
41254;BME280;26987;59.928;30.306;2023-05-20T01:50:29;103059.81;;;8.39;100.00
41254;BME280;26987;59.928;30.306;2023-05-20T01:52:57;103055.88;;;8.43;100.00
41254;BME280;26987;59.928;30.306;2023-05-20T01:55:26;103053.94;;;8.45;100.00
41254;BME280;26987;59.928;30.306;2023-05-20T01:57:54;103055.28;;;8.61;100.00
41254;BME280;26987;59.928;30.306;2023-05-20T02:00:22;103072.88;;;8.74;100.00
41254;BME280;26987;59.928;30.306;2023-05-20T02:02:50;103072.66;;;8.87;100.00
41254;BME280;26987;59.928;30.306;2023-05-20T02:05:18;103069.97;;;8.96;100.00
41254;BME280;26987;59.928;30.306;2023-05-20T02:07:46;103075.34;;;9.16;100.00
41254;BME280;26987;59.928;30.306;2023-05-20T02:10:14;103072.97;;;9.23;100.00
41254;BME280;26987;59.928;30.306;2023-05-20T02:12:43;103069.56;;;9.31;99.16
41254;BME280;26987;59.928;30.306;2023-05-20T02:15:13;103081.13;;;9.41;97.72
41254;BME280;26987;59.928;30.306;2023-05-20T02:17:41;103086.63;;;9.59;96.64
41254;BME280;26987;59.928;30.306;2023-05-20T02:20:10;103089.09;;;10.01;94.03
41254;BME280;26987;59.928;30.306;2023-05-20T02:22:39;103096.97;;;10.50;91.02
41254;BME280;26987;59.928;30.306;2023-05-20T02:25:07;103097.00;;;10.96;87.39
41254;BME280;26987;59.928;30.306;2023-05-20T02:27:36;103098.72;;;11.34;84.62
41254;BME280;26987;59.928;30.306;2023-05-20T02:30:07;103101.41;;;11.79;82.06
41254;BME280;26987;59.928;30.306;2023-05-20T02:32:35;103102.72;;;12.19;79.95
41254;BME280;26987;59.928;30.306;2023-05-20T02:35:04;103107.94;;;12.56;77.28
41254;BME280;26987;59.928;30.306;2023-05-20T02:37:32;103092.53;;;12.83;75.20
41254;BME280;26987;59.928;30.306;2023-05-20T02:40:00;103082.81;;;13.07;73.79
41254;BME280;26987;59.928;30.306;2023-05-20T02:42:28;103111.78;;;13.38;72.65
41254;BME280;26987;59.928;30.306;2023-05-20T02:44:56;103113.84;;;13.69;71.38
41254;BME280;26987;59.928;30.306;2023-05-20T02:47:26;103110.75;;;14.14;69.69
41254;BME280;26987;59.928;30.306;2023-05-20T02:49:54;103112.38;;;14.23;67.77
41254;BME280;26987;59.928;30.306;2023-05-20T02:52:22;103113.06;;;14.25;66.71
41254;BME280;26987;59.928;30.306;2023-05-20T02:54:49;103118.06;;;14.37;66.20
41254;BME280;26987;59.928;30.306;2023-05-20T02:57:18;103125.06;;;14.63;65.43
41254;BME280;26987;59.928;30.306;2023-05-20T02:59:46;103122.31;;;14.80;64.22
41254;BME280;26987;59.928;30.306;2023-05-20T03:02:14;103126.13;;;15.17;62.96
41254;BME280;26987;59.928;30.306;2023-05-20T03:04:43;103127.56;;;15.51;61.85
41254;BME280;26987;59.928;30.306;2023-05-20T03:07:11;103121.59;;;15.95;59.49
41254;BME280;26987;59.928;30.306;2023-05-20T03:09:40;103123.97;;;16.13;58.47
41254;BME280;26987;59.928;30.306;2023-05-20T03:12:08;103123.53;;;16.61;56.91
41254;BME280;26987;59.928;30.306;2023-05-20T03:14:35;103132.84;;;16.89;55.67
41254;BME280;26987;59.928;30.306;2023-05-20T03:17:04;103122.81;;;17.26;54.23
41254;BME280;26987;59.928;30.306;2023-05-20T03:19:33;103120.00;;;17.35;53.37
41254;BME280;26987;59.928;30.306;2023-05-20T03:22:05;103114.75;;;17.33;53.36
41254;BME280;26987;59.928;30.306;2023-05-20T03:24:33;103134.25;;;17.22;53.19
41254;BME280;26987;59.928;30.306;2023-05-20T03:27:01;103131.19;;;17.53;52.51
41254;BME280;26987;59.928;30.306;2023-05-20T03:29:29;103135.38;;;17.56;52.36
41254;BME280;26987;59.928;30.306;2023-05-20T03:31:57;103137.66;;;17.52;52.10
41254;BME280;26987;59.928;30.306;2023-05-20T03:34:24;103134.63;;;17.40;52.35
41254;BME280;26987;59.928;30.306;2023-05-20T03:36:55;103143.63;;;17.70;51.46
41254;BME280;26987;59.928;30.306;2023-05-20T03:39:30;103140.91;;;17.98;51.23
41254;BME280;26987;59.928;30.306;2023-05-20T03:41:58;103131.78;;;18.06;49.67
41254;BME280;26987;59.928;30.306;2023-05-20T03:44:25;103132.34;;;18.23;49.53
41254;BME280;26987;59.928;30.306;2023-05-20T03:46:54;103140.69;;;18.22;49.31
41254;BME280;26987;59.928;30.306;2023-05-20T03:49:21;103137.09;;;18.14;49.18
41254;BME280;26987;59.928;30.306;2023-05-20T03:51:49;103129.03;;;18.35;48.74
41254;BME280;26987;59.928;30.306;2023-05-20T03:54:17;103110.50;;;18.45;48.27
41254;BME280;26987;59.928;30.306;2023-05-20T03:56:50;103140.44;;;19.21;47.10
41254;BME280;26987;59.928;30.306;2023-05-20T03:59:18;103139.81;;;19.53;45.87
41254;BME280;26987;59.928;30.306;2023-05-20T04:01:47;103142.72;;;19.85;44.46
41254;BME280;26987;59.928;30.306;2023-05-20T04:04:15;103125.16;;;19.88;44.03
41254;BME280;26987;59.928;30.306;2023-05-20T04:06:43;103139.00;;;19.73;44.12
41254;BME280;26987;59.928;30.306;2023-05-20T04:09:11;103137.44;;;20.24;43.48
41254;BME280;26987;59.928;30.306;2023-05-20T04:11:39;103134.09;;;20.68;42.28
41254;BME280;26987;59.928;30.306;2023-05-20T04:14:10;103136.63;;;20.70;42.17
41254;BME280;26987;59.928;30.306;2023-05-20T04:16:41;103136.69;;;21.02;40.72
41254;BME280;26987;59.928;30.306;2023-05-20T04:19:10;103140.09;;;21.23;40.38
41254;BME280;26987;59.928;30.306;2023-05-20T04:21:38;103141.19;;;21.47;39.44
41254;BME280;26987;59.928;30.306;2023-05-20T04:24:06;103147.91;;;22.14;38.14
41254;BME280;26987;59.928;30.306;2023-05-20T04:26:34;103140.34;;;22.85;37.16
41254;BME280;26987;59.928;30.306;2023-05-20T04:29:02;103146.06;;;23.38;35.69
41254;BME280;26987;59.928;30.306;2023-05-20T04:31:34;103148.72;;;23.56;35.23
41254;BME280;26987;59.928;30.306;2023-05-20T04:34:03;103142.53;;;23.85;34.53
41254;BME280;26987;59.928;30.306;2023-05-20T04:36:31;103139.78;;;24.50;33.09
41254;BME280;26987;59.928;30.306;2023-05-20T04:39:02;103138.78;;;24.68;32.42
41254;BME280;26987;59.928;30.306;2023-05-20T04:41:33;103142.81;;;24.66;31.51
41254;BME280;26987;59.928;30.306;2023-05-20T04:44:02;103139.59;;;25.15;30.50
41254;BME280;26987;59.928;30.306;2023-05-20T04:46:30;103140.28;;;25.40;29.62
41254;BME280;26987;59.928;30.306;2023-05-20T04:49:00;103144.50;;;25.82;29.56
41254;BME280;26987;59.928;30.306;2023-05-20T04:51:29;103138.00;;;25.71;28.76
41254;BME280;26987;59.928;30.306;2023-05-20T04:53:57;103136.81;;;25.62;28.54
41254;BME280;26987;59.928;30.306;2023-05-20T04:56:28;103141.59;;;25.20;29.65
41254;BME280;26987;59.928;30.306;2023-05-20T04:58:56;103145.56;;;25.12;29.38
41254;BME280;26987;59.928;30.306;2023-05-20T05:01:24;103141.13;;;25.40;29.70
41254;BME280;26987;59.928;30.306;2023-05-20T05:03:52;103146.84;;;25.22;30.04
41254;BME280;26987;59.928;30.306;2023-05-20T05:06:22;103138.75;;;24.98;30.24
41254;BME280;26987;59.928;30.306;2023-05-20T05:08:50;103147.09;;;25.03;30.16
41254;BME280;26987;59.928;30.306;2023-05-20T05:11:18;103144.41;;;25.08;29.68
41254;BME280;26987;59.928;30.306;2023-05-20T05:13:47;103142.09;;;25.17;29.80
41254;BME280;26987;59.928;30.306;2023-05-20T05:16:15;103138.28;;;25.18;29.78
41254;BME280;26987;59.928;30.306;2023-05-20T05:18:43;103131.44;;;25.55;29.43
41254;BME280;26987;59.928;30.306;2023-05-20T05:21:11;103150.13;;;25.92;29.20
41254;BME280;26987;59.928;30.306;2023-05-20T05:23:40;103143.09;;;25.79;29.59
41254;BME280;26987;59.928;30.306;2023-05-20T05:26:08;103140.19;;;25.52;29.68
41254;BME280;26987;59.928;30.306;2023-05-20T05:28:37;103045.53;;;25.20;29.26
41254;BME280;26987;59.928;30.306;2023-05-20T05:31:05;103139.59;;;25.67;28.99
41254;BME280;26987;59.928;30.306;2023-05-20T05:33:33;103124.19;;;26.05;28.83
41254;BME280;26987;59.928;30.306;2023-05-20T05:36:01;103136.47;;;26.20;28.68
41254;BME280;26987;59.928;30.306;2023-05-20T05:38:30;103132.06;;;26.69;27.75
41254;BME280;26987;59.928;30.306;2023-05-20T05:40:59;103139.63;;;27.06;27.50
41254;BME280;26987;59.928;30.306;2023-05-20T05:43:27;103137.38;;;27.03;27.76
41254;BME280;26987;59.928;30.306;2023-05-20T05:45:56;103095.44;;;26.36;27.81
41254;BME280;26987;59.928;30.306;2023-05-20T05:48:25;103137.41;;;27.08;27.61
41254;BME280;26987;59.928;30.306;2023-05-20T05:50:52;103137.78;;;26.90;27.70
41254;BME280;26987;59.928;30.306;2023-05-20T05:53:21;103136.09;;;26.89;27.90
41254;BME280;26987;59.928;30.306;2023-05-20T05:55:49;103138.25;;;27.09;27.52
41254;BME280;26987;59.928;30.306;2023-05-20T05:58:19;103139.28;;;27.36;27.17
41254;BME280;26987;59.928;30.306;2023-05-20T06:00:50;103139.94;;;28.02;27.02
41254;BME280;26987;59.928;30.306;2023-05-20T06:03:20;103133.75;;;27.36;27.65
41254;BME280;26987;59.928;30.306;2023-05-20T06:05:49;103108.06;;;26.92;27.97
41254;BME280;26987;59.928;30.306;2023-05-20T06:08:20;103139.69;;;27.17;27.83
41254;BME280;26987;59.928;30.306;2023-05-20T06:10:48;103110.22;;;26.85;27.81
41254;BME280;26987;59.928;30.306;2023-05-20T06:13:16;103139.44;;;26.91;27.94
41254;BME280;26987;59.928;30.306;2023-05-20T06:15:48;103128.22;;;26.42;29.13
41254;BME280;26987;59.928;30.306;2023-05-20T06:18:16;103123.31;;;26.22;29.15
41254;BME280;26987;59.928;30.306;2023-05-20T06:20:44;103125.75;;;26.68;28.71
41254;BME280;26987;59.928;30.306;2023-05-20T06:23:12;103123.97;;;27.12;28.01
41254;BME280;26987;59.928;30.306;2023-05-20T06:26:00;103128.09;;;26.87;28.47
41254;BME280;26987;59.928;30.306;2023-05-20T06:28:29;103128.94;;;26.88;28.45
41254;BME280;26987;59.928;30.306;2023-05-20T06:30:59;103134.25;;;26.67;28.90
41254;BME280;26987;59.928;30.306;2023-05-20T06:33:30;103131.41;;;26.12;29.18
41254;BME280;26987;59.928;30.306;2023-05-20T06:36:02;103119.16;;;25.40;30.17
41254;BME280;26987;59.928;30.306;2023-05-20T06:38:30;103135.25;;;25.71;30.01
41254;BME280;26987;59.928;30.306;2023-05-20T06:40:58;103130.06;;;25.92;29.81
41254;BME280;26987;59.928;30.306;2023-05-20T06:43:27;103133.06;;;25.90;29.74
41254;BME280;26987;59.928;30.306;2023-05-20T06:46:05;103124.44;;;26.26;29.32
41254;BME280;26987;59.928;30.306;2023-05-20T06:48:45;103128.66;;;26.12;29.51
41254;BME280;26987;59.928;30.306;2023-05-20T06:51:13;103125.59;;;25.86;29.98
41254;BME280;26987;59.928;30.306;2023-05-20T06:53:43;103130.34;;;25.56;29.93
41254;BME280;26987;59.928;30.306;2023-05-20T06:56:11;103122.88;;;25.00;30.74
41254;BME280;26987;59.928;30.306;2023-05-20T06:58:39;103124.22;;;24.68;31.71
41254;BME280;26987;59.928;30.306;2023-05-20T07:01:08;103123.00;;;24.47;32.43
41254;BME280;26987;59.928;30.306;2023-05-20T07:03:36;103123.19;;;24.16;32.04
41254;BME280;26987;59.928;30.306;2023-05-20T07:06:05;103129.66;;;23.62;33.36
41254;BME280;26987;59.928;30.306;2023-05-20T07:08:33;103124.94;;;23.02;34.16
41254;BME280;26987;59.928;30.306;2023-05-20T07:11:01;103123.38;;;22.45;35.23
41254;BME280;26987;59.928;30.306;2023-05-20T07:13:29;103116.25;;;22.07;35.85
41254;BME280;26987;59.928;30.306;2023-05-20T07:15:58;103119.00;;;21.88;36.17
41254;BME280;26987;59.928;30.306;2023-05-20T07:18:28;103124.59;;;21.49;37.19
41254;BME280;26987;59.928;30.306;2023-05-20T07:20:56;103114.13;;;20.81;38.17
41254;BME280;26987;59.928;30.306;2023-05-20T07:23:42;103121.50;;;20.28;38.43
41254;BME280;26987;59.928;30.306;2023-05-20T07:26:10;103124.03;;;20.23;38.92
41254;BME280;26987;59.928;30.306;2023-05-20T07:28:38;103132.69;;;19.86;39.23
41254;BME280;26987;59.928;30.306;2023-05-20T07:31:06;103125.16;;;19.88;39.97
41254;BME280;26987;59.928;30.306;2023-05-20T07:33:42;103120.34;;;19.83;39.67
41254;BME280;26987;59.928;30.306;2023-05-20T07:36:10;103117.03;;;19.61;40.05
41254;BME280;26987;59.928;30.306;2023-05-20T07:38:40;103112.63;;;19.39;40.26
41254;BME280;26987;59.928;30.306;2023-05-20T07:41:09;103087.88;;;19.00;40.94
41254;BME280;26987;59.928;30.306;2023-05-20T07:43:37;103120.50;;;19.07;41.55
41254;BME280;26987;59.928;30.306;2023-05-20T07:46:06;103113.56;;;18.91;41.34
41254;BME280;26987;59.928;30.306;2023-05-20T07:48:34;103112.97;;;19.02;41.65
41254;BME280;26987;59.928;30.306;2023-05-20T07:51:04;103121.75;;;19.04;41.72
41254;BME280;26987;59.928;30.306;2023-05-20T07:53:33;103114.66;;;19.03;41.52
41254;BME280;26987;59.928;30.306;2023-05-20T07:56:01;103123.63;;;19.04;41.64
41254;BME280;26987;59.928;30.306;2023-05-20T07:58:31;103117.16;;;18.91;41.86
41254;BME280;26987;59.928;30.306;2023-05-20T08:00:59;103112.91;;;18.75;42.00
41254;BME280;26987;59.928;30.306;2023-05-20T08:03:27;103100.97;;;18.70;41.96
41254;BME280;26987;59.928;30.306;2023-05-20T08:06:04;103112.50;;;18.72;41.96
41254;BME280;26987;59.928;30.306;2023-05-20T08:08:32;103103.19;;;18.46;42.10
41254;BME280;26987;59.928;30.306;2023-05-20T08:11:09;103091.94;;;18.56;42.43
41254;BME280;26987;59.928;30.306;2023-05-20T08:13:38;103098.63;;;18.46;42.45
41254;BME280;26987;59.928;30.306;2023-05-20T08:16:07;103103.63;;;18.49;42.94
41254;BME280;26987;59.928;30.306;2023-05-20T08:18:35;103092.97;;;18.55;43.26
41254;BME280;26987;59.928;30.306;2023-05-20T08:21:05;103094.88;;;18.61;42.23
41254;BME280;26987;59.928;30.306;2023-05-20T08:23:35;103096.19;;;18.72;42.23
41254;BME280;26987;59.928;30.306;2023-05-20T08:26:03;103087.19;;;18.64;42.48
41254;BME280;26987;59.928;30.306;2023-05-20T08:28:33;103084.47;;;18.64;42.04
41254;BME280;26987;59.928;30.306;2023-05-20T08:31:02;103088.25;;;18.70;42.02
41254;BME280;26987;59.928;30.306;2023-05-20T08:33:31;103085.91;;;18.60;42.29
41254;BME280;26987;59.928;30.306;2023-05-20T08:35:59;103099.69;;;18.59;42.86
41254;BME280;26987;59.928;30.306;2023-05-20T08:38:30;103078.34;;;18.49;42.48
41254;BME280;26987;59.928;30.306;2023-05-20T08:40:58;103089.22;;;18.49;42.79
41254;BME280;26987;59.928;30.306;2023-05-20T08:43:26;103081.81;;;18.22;42.38
41254;BME280;26987;59.928;30.306;2023-05-20T08:45:55;103085.59;;;18.35;43.04
41254;BME280;26987;59.928;30.306;2023-05-20T08:48:26;103092.66;;;18.22;44.59
41254;BME280;26987;59.928;30.306;2023-05-20T08:50:56;103088.50;;;18.26;44.56
41254;BME280;26987;59.928;30.306;2023-05-20T08:53:25;103082.88;;;18.28;45.17
41254;BME280;26987;59.928;30.306;2023-05-20T08:55:55;103089.16;;;18.42;44.58
41254;BME280;26987;59.928;30.306;2023-05-20T08:58:24;103090.22;;;18.41;44.65
41254;BME280;26987;59.928;30.306;2023-05-20T09:00:53;103091.88;;;18.42;44.94
41254;BME280;26987;59.928;30.306;2023-05-20T09:03:21;103088.78;;;18.45;44.73
41254;BME280;26987;59.928;30.306;2023-05-20T09:05:51;103096.31;;;18.50;44.81
41254;BME280;26987;59.928;30.306;2023-05-20T09:08:23;103088.78;;;18.45;45.12
41254;BME280;26987;59.928;30.306;2023-05-20T09:10:53;103080.63;;;18.45;45.47
41254;BME280;26987;59.928;30.306;2023-05-20T09:13:23;103086.03;;;18.38;46.03
41254;BME280;26987;59.928;30.306;2023-05-20T09:15:51;103084.56;;;18.36;45.83
41254;BME280;26987;59.928;30.306;2023-05-20T09:18:19;103088.56;;;18.40;45.93
41254;BME280;26987;59.928;30.306;2023-05-20T09:20:49;103086.06;;;18.45;46.46
41254;BME280;26987;59.928;30.306;2023-05-20T09:23:18;103077.34;;;18.57;46.05
41254;BME280;26987;59.928;30.306;2023-05-20T09:25:49;103075.25;;;18.65;45.72
41254;BME280;26987;59.928;30.306;2023-05-20T09:28:21;103044.75;;;18.57;45.98
41254;BME280;26987;59.928;30.306;2023-05-20T09:30:55;103072.16;;;18.69;45.13
41254;BME280;26987;59.928;30.306;2023-05-20T09:33:26;103071.69;;;18.65;45.21
41254;BME280;26987;59.928;30.306;2023-05-20T09:36:04;103070.44;;;18.61;45.13
41254;BME280;26987;59.928;30.306;2023-05-20T09:38:36;103056.28;;;18.17;42.86
41254;BME280;26987;59.928;30.306;2023-05-20T09:41:06;103064.09;;;17.98;43.93
41254;BME280;26987;59.928;30.306;2023-05-20T09:43:37;103055.38;;;18.02;44.99
41254;BME280;26987;59.928;30.306;2023-05-20T09:46:06;103069.44;;;18.20;45.28
41254;BME280;26987;59.928;30.306;2023-05-20T09:48:35;103064.47;;;18.23;44.84
41254;BME280;26987;59.928;30.306;2023-05-20T09:51:03;103063.47;;;18.31;44.58
41254;BME280;26987;59.928;30.306;2023-05-20T09:53:33;103068.91;;;18.38;44.62
41254;BME280;26987;59.928;30.306;2023-05-20T09:56:01;103058.69;;;18.40;44.26
41254;BME280;26987;59.928;30.306;2023-05-20T09:58:28;103061.59;;;18.38;43.77
41254;BME280;26987;59.928;30.306;2023-05-20T10:00:58;103065.56;;;18.36;43.20
41254;BME280;26987;59.928;30.306;2023-05-20T10:03:26;103060.19;;;18.49;44.29
41254;BME280;26987;59.928;30.306;2023-05-20T10:06:04;103064.97;;;18.47;43.16
41254;BME280;26987;59.928;30.306;2023-05-20T10:08:48;103073.31;;;18.52;42.79
41254;BME280;26987;59.928;30.306;2023-05-20T10:11:26;103060.22;;;18.63;42.58
41254;BME280;26987;59.928;30.306;2023-05-20T10:14:08;103055.81;;;18.62;41.94
41254;BME280;26987;59.928;30.306;2023-05-20T10:16:45;103052.47;;;18.60;41.54
41254;BME280;26987;59.928;30.306;2023-05-20T10:19:26;103058.72;;;18.60;41.21
41254;BME280;26987;59.928;30.306;2023-05-20T10:21:59;103056.00;;;18.60;40.84
41254;BME280;26987;59.928;30.306;2023-05-20T10:24:31;103056.03;;;18.74;40.57
41254;BME280;26987;59.928;30.306;2023-05-20T10:27:02;103064.84;;;18.83;39.35
41254;BME280;26987;59.928;30.306;2023-05-20T10:29:41;103054.84;;;18.97;40.10
41254;BME280;26987;59.928;30.306;2023-05-20T10:32:11;103052.72;;;18.92;41.26
41254;BME280;26987;59.928;30.306;2023-05-20T10:34:46;103034.97;;;18.96;41.44
41254;BME280;26987;59.928;30.306;2023-05-20T10:37:24;103050.91;;;19.26;40.67
41254;BME280;26987;59.928;30.306;2023-05-20T10:40:04;103055.72;;;19.18;40.93
41254;BME280;26987;59.928;30.306;2023-05-20T10:42:32;103057.75;;;18.95;42.59
41254;BME280;26987;59.928;30.306;2023-05-20T10:45:00;103039.78;;;18.81;41.49
41254;BME280;26987;59.928;30.306;2023-05-20T10:47:30;103031.63;;;18.81;41.92
41254;BME280;26987;59.928;30.306;2023-05-20T10:49:58;103042.94;;;19.04;40.21
41254;BME280;26987;59.928;30.306;2023-05-20T10:52:31;103035.81;;;18.97;40.38
41254;BME280;26987;59.928;30.306;2023-05-20T10:55:00;103036.06;;;19.09;40.69
41254;BME280;26987;59.928;30.306;2023-05-20T10:57:28;103033.13;;;19.24;40.38
41254;BME280;26987;59.928;30.306;2023-05-20T10:59:57;103033.56;;;19.27;38.58
41254;BME280;26987;59.928;30.306;2023-05-20T11:02:26;103034.78;;;19.25;39.14
41254;BME280;26987;59.928;30.306;2023-05-20T11:04:56;103031.84;;;19.26;38.65
41254;BME280;26987;59.928;30.306;2023-05-20T11:07:25;103032.47;;;19.08;39.58
41254;BME280;26987;59.928;30.306;2023-05-20T11:09:54;103033.31;;;19.02;39.59
41254;BME280;26987;59.928;30.306;2023-05-20T11:12:23;103031.81;;;18.99;39.06
41254;BME280;26987;59.928;30.306;2023-05-20T11:14:51;103026.78;;;18.76;39.37
41254;BME280;26987;59.928;30.306;2023-05-20T11:17:19;103001.47;;;18.55;39.61
41254;BME280;26987;59.928;30.306;2023-05-20T11:19:47;103016.09;;;18.68;39.39
41254;BME280;26987;59.928;30.306;2023-05-20T11:22:17;103019.09;;;18.80;38.49
41254;BME280;26987;59.928;30.306;2023-05-20T11:24:45;103019.25;;;18.71;37.97
41254;BME280;26987;59.928;30.306;2023-05-20T11:27:13;103023.66;;;18.65;37.17
41254;BME280;26987;59.928;30.306;2023-05-20T11:29:41;103020.72;;;18.67;37.70
41254;BME280;26987;59.928;30.306;2023-05-20T11:32:09;103025.94;;;18.62;37.25
41254;BME280;26987;59.928;30.306;2023-05-20T11:34:38;103005.00;;;18.56;36.98
41254;BME280;26987;59.928;30.306;2023-05-20T11:37:06;103019.25;;;18.71;36.47
41254;BME280;26987;59.928;30.306;2023-05-20T11:39:36;103022.41;;;18.82;36.68
41254;BME280;26987;59.928;30.306;2023-05-20T11:42:05;103015.31;;;18.87;36.48
41254;BME280;26987;59.928;30.306;2023-05-20T11:44:32;102959.91;;;18.61;36.07
41254;BME280;26987;59.928;30.306;2023-05-20T11:47:01;103011.56;;;18.95;35.94
41254;BME280;26987;59.928;30.306;2023-05-20T11:49:29;103009.03;;;18.94;36.38
41254;BME280;26987;59.928;30.306;2023-05-20T11:52:07;102999.22;;;18.86;36.23
41254;BME280;26987;59.928;30.306;2023-05-20T11:54:37;103001.72;;;18.87;35.75
41254;BME280;26987;59.928;30.306;2023-05-20T11:57:05;102999.00;;;18.74;35.72
41254;BME280;26987;59.928;30.306;2023-05-20T11:59:33;102996.69;;;18.64;35.24
41254;BME280;26987;59.928;30.306;2023-05-20T12:02:01;102970.56;;;18.49;34.88
41254;BME280;26987;59.928;30.306;2023-05-20T12:04:29;102974.72;;;18.59;34.74
41254;BME280;26987;59.928;30.306;2023-05-20T12:06:57;102985.59;;;18.72;34.60
41254;BME280;26987;59.928;30.306;2023-05-20T12:09:25;102982.06;;;18.72;34.74
41254;BME280;26987;59.928;30.306;2023-05-20T12:11:54;102983.97;;;18.78;34.93
41254;BME280;26987;59.928;30.306;2023-05-20T12:14:22;102991.66;;;18.81;34.58
41254;BME280;26987;59.928;30.306;2023-05-20T12:16:50;102987.53;;;18.85;33.92
41254;BME280;26987;59.928;30.306;2023-05-20T12:19:19;102981.25;;;18.85;34.16
41254;BME280;26987;59.928;30.306;2023-05-20T12:21:46;102981.03;;;18.86;33.97
41254;BME280;26987;59.928;30.306;2023-05-20T12:24:14;102977.25;;;18.87;33.97
41254;BME280;26987;59.928;30.306;2023-05-20T12:26:42;102975.81;;;18.78;34.46
41254;BME280;26987;59.928;30.306;2023-05-20T12:29:12;102962.81;;;18.66;34.79
41254;BME280;26987;59.928;30.306;2023-05-20T12:31:39;102965.31;;;18.55;34.41
41254;BME280;26987;59.928;30.306;2023-05-20T12:34:07;102956.94;;;18.36;34.72
41254;BME280;26987;59.928;30.306;2023-05-20T12:36:35;102965.06;;;18.22;34.85
41254;BME280;26987;59.928;30.306;2023-05-20T12:39:04;102960.78;;;18.06;35.24
41254;BME280;26987;59.928;30.306;2023-05-20T12:41:32;102945.31;;;17.93;34.95
41254;BME280;26987;59.928;30.306;2023-05-20T12:44:00;102932.25;;;17.68;34.71
41254;BME280;26987;59.928;30.306;2023-05-20T12:46:29;102947.31;;;17.77;34.87
41254;BME280;26987;59.928;30.306;2023-05-20T12:48:57;102950.47;;;17.81;35.00
41254;BME280;26987;59.928;30.306;2023-05-20T12:51:25;102946.91;;;17.81;34.80